createdAt,value
2022-11-27T00:01:51.890Z,-0.04
2022-11-27T00:06:54.621Z,-0.03
2022-11-27T00:11:57.390Z,-0.03
2022-11-27T00:17:01.131Z,0.01
2022-11-27T00:22:03.849Z,0.08
2022-11-27T00:27:06.615Z,0.13
2022-11-27T00:32:09.408Z,0.16
2022-11-27T00:37:14.977Z,0.18
2022-11-27T00:42:18.000Z,0.22
2022-11-27T00:47:20.780Z,0.25
2022-11-27T00:52:23.513Z,0.22
2022-11-27T00:57:26.291Z,0.21
2022-11-27T01:02:29.089Z,0.18
2022-11-27T01:07:31.986Z,0.17
2022-11-27T01:12:34.878Z,0.21
2022-11-27T01:17:37.586Z,0.27
2022-11-27T01:22:40.386Z,0.31
2022-11-27T01:27:43.167Z,0.28
2022-11-27T01:32:45.989Z,0.32
2022-11-27T01:37:48.728Z,0.33
2022-11-27T01:42:51.481Z,0.32
2022-11-27T01:48:00.029Z,0.24
2022-11-27T01:53:10.191Z,0.17
2022-11-27T01:58:22.007Z,0.12
2022-11-27T02:03:25.140Z,0.13
2022-11-27T02:08:28.114Z,0.13
2022-11-27T02:13:43.503Z,0.16
2022-11-27T02:18:55.222Z,0.11
2022-11-27T02:24:21.068Z,0.08
2022-11-27T02:29:27.224Z,0.10
2022-11-27T02:34:45.280Z,0.11
2022-11-27T02:40:12.266Z,0.12
2022-11-27T02:45:21.611Z,0.13
2022-11-27T02:50:27.700Z,0.10
2022-11-27T02:55:34.631Z,0.04
2022-11-27T03:00:40.575Z,0.02
2022-11-27T03:05:47.336Z,-0.00
2022-11-27T03:11:11.775Z,-0.03
2022-11-27T03:16:35.912Z,0.01
2022-11-27T03:21:45.630Z,0.08
2022-11-27T03:26:48.757Z,0.10
2022-11-27T03:31:52.153Z,0.12
2022-11-27T03:36:55.360Z,0.09
2022-11-27T03:42:07.319Z,0.11
2022-11-27T03:47:09.982Z,0.14
2022-11-27T03:52:31.492Z,0.17
2022-11-27T03:57:40.972Z,0.14
2022-11-27T04:02:51.664Z,0.10
2022-11-27T04:07:54.416Z,0.14
2022-11-27T04:12:57.234Z,0.14
2022-11-27T04:17:59.988Z,0.07
2022-11-27T04:23:02.856Z,0.02
2022-11-27T04:28:05.559Z,-0.02
2022-11-27T04:33:08.300Z,-0.02
2022-11-27T04:38:12.076Z,0.04
2022-11-27T04:43:14.886Z,0.04
2022-11-27T04:48:17.683Z,0.05
2022-11-27T04:53:20.480Z,0.16
2022-11-27T04:58:23.270Z,0.20
2022-11-27T05:03:26.086Z,0.22
2022-11-27T05:08:30.951Z,0.25
2022-11-27T05:13:34.239Z,0.30
2022-11-27T05:18:36.948Z,0.32
2022-11-27T05:23:39.679Z,0.32
2022-11-27T05:28:42.352Z,0.32
2022-11-27T05:33:45.163Z,0.34
2022-11-27T05:38:47.896Z,0.35
2022-11-27T05:43:50.637Z,0.40
2022-11-27T05:48:53.353Z,0.48
2022-11-27T05:53:56.135Z,0.51
2022-11-27T05:58:59.150Z,0.40
2022-11-27T06:04:01.874Z,0.30
2022-11-27T06:09:09.302Z,0.25
2022-11-27T06:14:15.185Z,0.24
2022-11-27T06:19:18.019Z,0.24
2022-11-27T06:24:21.022Z,0.24
2022-11-27T06:29:23.727Z,0.34
2022-11-27T06:34:26.414Z,0.40
2022-11-27T06:39:29.112Z,0.33
2022-11-27T06:44:31.919Z,0.34
2022-11-27T06:49:35.200Z,0.41
2022-11-27T06:54:38.144Z,0.50
2022-11-27T06:59:41.138Z,0.53
2022-11-27T07:04:45.062Z,0.54
2022-11-27T07:09:47.862Z,0.63
2022-11-27T07:14:50.568Z,0.72
2022-11-27T07:19:53.313Z,0.74
2022-11-27T07:24:56.009Z,0.73
2022-11-27T07:29:58.730Z,0.77
2022-11-27T07:35:01.559Z,0.85
2022-11-27T07:40:04.982Z,0.92
2022-11-27T07:45:09.389Z,0.93
2022-11-27T07:50:12.718Z,0.91
2022-11-27T07:55:15.350Z,0.98
2022-11-27T08:00:18.739Z,0.95
2022-11-27T08:05:21.562Z,0.97
2022-11-27T08:10:24.325Z,1.08
2022-11-27T08:15:27.228Z,1.18
2022-11-27T08:20:30.537Z,1.19
2022-11-27T08:25:33.450Z,1.19
2022-11-27T08:30:36.157Z,1.16
2022-11-27T08:35:39.117Z,1.13
2022-11-27T08:40:42.059Z,1.14
2022-11-27T08:45:44.816Z,1.12
2022-11-27T08:50:48.552Z,1.11
2022-11-27T08:55:51.258Z,1.12
2022-11-27T09:00:53.973Z,1.18
2022-11-27T09:05:56.884Z,1.34
2022-11-27T09:11:01.453Z,1.44
2022-11-27T09:16:05.621Z,1.51
2022-11-27T09:21:10.669Z,1.64
2022-11-27T09:26:16.873Z,1.77
2022-11-27T09:31:21.221Z,1.90
2022-11-27T09:36:26.116Z,2.01
2022-11-27T09:41:45.088Z,2.11
2022-11-27T09:46:49.593Z,2.13
2022-11-27T09:51:55.940Z,2.19
2022-11-27T09:56:59.304Z,2.27
2022-11-27T10:02:02.135Z,2.28
2022-11-27T10:07:17.215Z,2.20
2022-11-27T10:13:00.993Z,2.23
2022-11-27T10:18:23.908Z,2.33
2022-11-27T10:23:38.592Z,2.33
2022-11-27T10:29:19.674Z,2.36
2022-11-27T10:34:38.580Z,2.35
2022-11-27T10:39:56.402Z,2.20
2022-11-27T10:45:06.975Z,2.11
2022-11-27T10:50:15.128Z,2.00
2022-11-27T10:55:31.457Z,1.95
2022-11-27T11:00:34.243Z,1.96
2022-11-27T11:05:57.324Z,2.06
2022-11-27T11:11:01.972Z,2.09
2022-11-27T11:16:18.437Z,2.14
2022-11-27T11:21:48.477Z,2.17
2022-11-27T11:27:06.742Z,2.20
2022-11-27T11:32:23.837Z,2.23
2022-11-27T11:37:46.942Z,2.34
2022-11-27T11:43:01.068Z,2.44
2022-11-27T11:48:22.090Z,2.43
2022-11-27T11:53:32.281Z,2.40
2022-11-27T11:59:09.440Z,2.38
2022-11-27T12:04:12.296Z,2.31
2022-11-27T12:09:37.590Z,2.23
2022-11-27T12:15:19.110Z,2.24
2022-11-27T12:20:33.725Z,2.29
2022-11-27T12:26:10.182Z,2.30
2022-11-27T12:31:21.935Z,2.23
2022-11-27T12:36:44.258Z,2.34
2022-11-27T12:41:47.042Z,2.39
2022-11-27T12:47:04.888Z,2.36
2022-11-27T12:52:25.737Z,2.38
2022-11-27T12:57:49.100Z,2.36
2022-11-27T13:03:01.326Z,2.39
2022-11-27T13:08:18.737Z,2.33
2022-11-27T13:13:34.146Z,2.31
2022-11-27T13:18:41.473Z,2.26
2022-11-27T13:23:44.559Z,2.22
2022-11-27T13:28:55.375Z,2.21
2022-11-27T13:34:02.671Z,2.21
2022-11-27T13:39:06.308Z,2.18
2022-11-27T13:44:24.685Z,2.10
2022-11-27T13:49:38.970Z,2.02
2022-11-27T13:55:01.795Z,2.06
2022-11-27T14:00:16.356Z,2.05
2022-11-27T14:05:21.931Z,2.09
2022-11-27T14:10:28.833Z,2.10
2022-11-27T14:15:35.346Z,2.16
2022-11-27T14:20:49.281Z,2.16
2022-11-27T14:26:19.003Z,2.13
2022-11-27T14:31:27.627Z,2.11
2022-11-27T14:36:36.731Z,2.10
2022-11-27T14:41:39.470Z,2.01
2022-11-27T14:46:42.383Z,1.92
2022-11-27T14:51:46.021Z,1.85
2022-11-27T14:56:49.404Z,1.84
2022-11-27T15:02:18.522Z,1.94
2022-11-27T15:07:28.054Z,2.04
2022-11-27T15:12:34.163Z,2.00
2022-11-27T15:17:39.452Z,1.93
2022-11-27T15:22:57.528Z,1.92
2022-11-27T15:28:00.307Z,1.89
2022-11-27T15:33:03.192Z,1.79
2022-11-27T15:38:11.398Z,1.76
2022-11-27T15:43:16.183Z,1.71
2022-11-27T15:48:21.131Z,1.62
2022-11-27T15:53:23.887Z,1.57
2022-11-27T15:58:26.734Z,1.57
2022-11-27T16:03:29.442Z,1.54
2022-11-27T16:08:32.576Z,1.54
2022-11-27T16:13:35.340Z,1.60
2022-11-27T16:18:38.098Z,1.60
2022-11-27T16:23:42.671Z,1.53
2022-11-27T16:28:45.435Z,1.50
2022-11-27T16:33:48.697Z,1.51
2022-11-27T16:38:52.454Z,1.52
2022-11-27T16:43:56.825Z,1.53
2022-11-27T16:49:01.034Z,1.58
2022-11-27T16:54:06.359Z,1.63
2022-11-27T16:59:11.497Z,1.61
2022-11-27T17:04:20.016Z,1.56
2022-11-27T17:09:25.293Z,1.56
2022-11-27T17:14:28.198Z,1.61
2022-11-27T17:19:31.830Z,1.63
2022-11-27T17:24:36.067Z,1.65
2022-11-27T17:29:39.316Z,1.67
2022-11-27T17:34:42.229Z,1.66
2022-11-27T17:39:45.062Z,1.65
2022-11-27T17:44:48.054Z,1.67
2022-11-27T17:49:50.835Z,1.60
2022-11-27T17:54:53.548Z,1.56
2022-11-27T17:59:56.471Z,1.63
2022-11-27T18:04:59.484Z,1.69
2022-11-27T18:10:02.295Z,1.73
2022-11-27T18:15:05.816Z,1.78
2022-11-27T18:20:09.105Z,1.81
2022-11-27T18:25:11.777Z,1.80
2022-11-27T18:30:15.009Z,1.73
2022-11-27T18:35:17.633Z,1.64
2022-11-27T18:40:20.542Z,1.60
2022-11-27T18:45:32.819Z,1.60
2022-11-27T18:50:36.557Z,1.57
2022-11-27T18:55:39.354Z,1.59
2022-11-27T19:00:42.199Z,1.67
2022-11-27T19:05:45.080Z,1.73
2022-11-27T19:10:47.865Z,1.68
2022-11-27T19:15:51.174Z,1.63
2022-11-27T19:20:55.305Z,1.63
2022-11-27T19:25:58.104Z,1.66
2022-11-27T19:31:07.989Z,1.65
2022-11-27T19:36:13.139Z,1.66
2022-11-27T19:41:17.995Z,1.67
2022-11-27T19:46:26.893Z,1.63
2022-11-27T19:51:34.331Z,1.60
2022-11-27T19:56:38.882Z,1.60
2022-11-27T20:01:42.409Z,1.63
2022-11-27T20:06:45.217Z,1.71
2022-11-27T20:11:47.946Z,1.80
2022-11-27T20:16:51.196Z,1.73
2022-11-27T20:21:54.133Z,1.67
2022-11-27T20:26:56.898Z,1.71
2022-11-27T20:31:59.761Z,1.76
2022-11-27T20:37:02.589Z,1.71
2022-11-27T20:42:05.770Z,1.61
2022-11-27T20:47:08.853Z,1.58
2022-11-27T20:52:13.363Z,1.63
2022-11-27T20:57:16.361Z,1.61
2022-11-27T21:02:19.406Z,1.56
2022-11-27T21:07:22.683Z,1.53
2022-11-27T21:12:25.438Z,1.58
2022-11-27T21:17:28.258Z,1.64
2022-11-27T21:22:32.513Z,1.65
2022-11-27T21:27:37.471Z,1.69
2022-11-27T21:32:40.262Z,1.71
2022-11-27T21:37:43.985Z,1.70
2022-11-27T21:42:46.891Z,1.67
2022-11-27T21:47:49.791Z,1.66
2022-11-27T21:52:52.493Z,1.71
2022-11-27T21:57:55.206Z,1.81
2022-11-27T22:02:57.991Z,1.86
2022-11-27T22:13:21.223Z,1.87
2022-11-27T22:18:23.935Z,1.86
2022-11-27T22:23:26.699Z,1.81
2022-11-27T22:28:30.655Z,1.70
2022-11-27T22:33:35.683Z,1.65
2022-11-27T22:38:39.004Z,1.70
2022-11-27T22:43:41.978Z,1.75
2022-11-27T22:48:45.401Z,1.75
2022-11-27T22:53:48.409Z,1.74
2022-11-27T22:58:58.275Z,1.76
2022-11-27T23:04:09.171Z,1.77
2022-11-27T23:09:11.851Z,1.73
2022-11-27T23:14:14.607Z,1.69
2022-11-27T23:19:17.372Z,1.68
2022-11-27T23:24:20.170Z,1.70
2022-11-27T23:29:22.971Z,1.78
2022-11-27T23:34:25.771Z,1.78
2022-11-27T23:39:28.579Z,1.77
2022-11-27T23:44:31.341Z,1.76
2022-11-27T23:49:34.085Z,1.73
2022-11-27T23:54:36.867Z,1.73
2022-11-27T23:59:39.873Z,1.73
